sensor_id;sensor_type;location;lat;lon;timestamp;P1;durP1;ratioP1;P2;durP2;ratioP2
55641;SDS011;41509;53.108;6.100;2023-08-08T00:01:08;1.92;;;1.20;;
55641;SDS011;41509;53.108;6.100;2023-08-08T00:03:34;9.32;;;2.67;;
55641;SDS011;41509;53.108;6.100;2023-08-08T00:06:00;3.80;;;1.65;;
55641;SDS011;41509;53.108;6.100;2023-08-08T00:08:25;5.85;;;1.30;;
55641;SDS011;41509;53.108;6.100;2023-08-08T00:10:51;3.28;;;1.55;;
55641;SDS011;41509;53.108;6.100;2023-08-08T00:13:17;3.25;;;1.25;;
55641;SDS011;41509;53.108;6.100;2023-08-08T00:15:43;3.90;;;1.00;;
55641;SDS011;41509;53.108;6.100;2023-08-08T00:20:34;3.75;;;1.50;;
55641;SDS011;41509;53.108;6.100;2023-08-08T00:23:00;4.22;;;1.75;;
55641;SDS011;41509;53.108;6.100;2023-08-08T00:25:26;5.05;;;1.90;;
55641;SDS011;41509;53.108;6.100;2023-08-08T00:27:51;4.97;;;1.55;;
55641;SDS011;41509;53.108;6.100;2023-08-08T00:30:17;6.95;;;1.90;;
55641;SDS011;41509;53.108;6.100;2023-08-08T00:32:43;3.28;;;1.77;;
55641;SDS011;41509;53.108;6.100;2023-08-08T00:35:09;4.47;;;1.47;;
55641;SDS011;41509;53.108;6.100;2023-08-08T00:37:34;4.93;;;1.70;;
55641;SDS011;41509;53.108;6.100;2023-08-08T00:40:00;5.45;;;1.75;;
55641;SDS011;41509;53.108;6.100;2023-08-08T00:42:26;5.90;;;1.63;;
55641;SDS011;41509;53.108;6.100;2023-08-08T00:44:52;5.00;;;1.23;;
55641;SDS011;41509;53.108;6.100;2023-08-08T00:47:18;2.80;;;1.38;;
55641;SDS011;41509;53.108;6.100;2023-08-08T00:49:44;3.63;;;1.65;;
55641;SDS011;41509;53.108;6.100;2023-08-08T00:52:11;3.47;;;1.73;;
55641;SDS011;41509;53.108;6.100;2023-08-08T00:54:38;3.22;;;1.88;;
55641;SDS011;41509;53.108;6.100;2023-08-08T00:57:04;5.32;;;1.65;;
55641;SDS011;41509;53.108;6.100;2023-08-08T00:59:30;4.38;;;2.00;;
55641;SDS011;41509;53.108;6.100;2023-08-08T01:02:01;4.32;;;1.48;;
55641;SDS011;41509;53.108;6.100;2023-08-08T01:04:27;4.78;;;1.45;;
55641;SDS011;41509;53.108;6.100;2023-08-08T01:09:36;4.45;;;1.58;;
55641;SDS011;41509;53.108;6.100;2023-08-08T01:12:07;5.65;;;1.80;;
55641;SDS011;41509;53.108;6.100;2023-08-08T01:14:35;6.35;;;1.65;;
55641;SDS011;41509;53.108;6.100;2023-08-08T01:17:02;3.20;;;1.58;;
55641;SDS011;41509;53.108;6.100;2023-08-08T01:19:29;5.78;;;1.42;;
55641;SDS011;41509;53.108;6.100;2023-08-08T01:21:57;4.97;;;1.80;;
55641;SDS011;41509;53.108;6.100;2023-08-08T01:24:28;4.50;;;1.95;;
55641;SDS011;41509;53.108;6.100;2023-08-08T01:26:58;4.22;;;1.75;;
55641;SDS011;41509;53.108;6.100;2023-08-08T01:29:26;5.93;;;2.20;;
55641;SDS011;41509;53.108;6.100;2023-08-08T01:31:52;3.10;;;1.48;;
55641;SDS011;41509;53.108;6.100;2023-08-08T01:34:18;8.35;;;2.03;;
55641;SDS011;41509;53.108;6.100;2023-08-08T01:39:10;3.95;;;1.58;;
55641;SDS011;41509;53.108;6.100;2023-08-08T01:41:42;5.45;;;1.63;;
55641;SDS011;41509;53.108;6.100;2023-08-08T01:44:09;3.78;;;1.70;;
55641;SDS011;41509;53.108;6.100;2023-08-08T01:46:36;4.30;;;1.45;;
55641;SDS011;41509;53.108;6.100;2023-08-08T01:49:03;5.28;;;1.88;;
55641;SDS011;41509;53.108;6.100;2023-08-08T01:51:31;5.47;;;1.70;;
55641;SDS011;41509;53.108;6.100;2023-08-08T01:53:57;4.70;;;2.10;;
55641;SDS011;41509;53.108;6.100;2023-08-08T01:56:23;3.75;;;1.88;;
55641;SDS011;41509;53.108;6.100;2023-08-08T01:58:55;5.00;;;1.83;;
55641;SDS011;41509;53.108;6.100;2023-08-08T02:01:21;3.53;;;1.70;;
55641;SDS011;41509;53.108;6.100;2023-08-08T02:03:47;8.55;;;2.70;;
55641;SDS011;41509;53.108;6.100;2023-08-08T02:06:13;6.53;;;2.00;;
55641;SDS011;41509;53.108;6.100;2023-08-08T02:08:38;7.40;;;2.40;;
55641;SDS011;41509;53.108;6.100;2023-08-08T02:11:04;7.18;;;1.75;;
55641;SDS011;41509;53.108;6.100;2023-08-08T02:13:30;5.18;;;1.95;;
55641;SDS011;41509;53.108;6.100;2023-08-08T02:15:55;4.72;;;1.95;;
55641;SDS011;41509;53.108;6.100;2023-08-08T02:18:24;7.13;;;2.63;;
55641;SDS011;41509;53.108;6.100;2023-08-08T02:20:50;7.78;;;2.25;;
55641;SDS011;41509;53.108;6.100;2023-08-08T02:23:15;3.70;;;1.47;;
55641;SDS011;41509;53.108;6.100;2023-08-08T02:25:41;6.35;;;1.80;;
55641;SDS011;41509;53.108;6.100;2023-08-08T02:28:07;4.65;;;1.40;;
55641;SDS011;41509;53.108;6.100;2023-08-08T02:30:33;4.80;;;1.13;;
55641;SDS011;41509;53.108;6.100;2023-08-08T02:32:58;5.30;;;1.33;;
55641;SDS011;41509;53.108;6.100;2023-08-08T02:35:24;3.67;;;1.13;;
55641;SDS011;41509;53.108;6.100;2023-08-08T02:37:50;7.28;;;2.25;;
55641;SDS011;41509;53.108;6.100;2023-08-08T02:40:15;8.60;;;2.05;;
55641;SDS011;41509;53.108;6.100;2023-08-08T02:42:46;9.20;;;1.92;;
55641;SDS011;41509;53.108;6.100;2023-08-08T02:45:12;8.00;;;1.60;;
55641;SDS011;41509;53.108;6.100;2023-08-08T02:47:37;7.25;;;1.80;;
55641;SDS011;41509;53.108;6.100;2023-08-08T02:50:03;4.00;;;2.10;;
55641;SDS011;41509;53.108;6.100;2023-08-08T02:52:29;6.15;;;1.88;;
55641;SDS011;41509;53.108;6.100;2023-08-08T02:54:55;5.20;;;1.75;;
55641;SDS011;41509;53.108;6.100;2023-08-08T02:57:20;7.43;;;1.85;;
55641;SDS011;41509;53.108;6.100;2023-08-08T02:59:46;6.07;;;1.58;;
55641;SDS011;41509;53.108;6.100;2023-08-08T03:02:11;10.02;;;2.15;;
55641;SDS011;41509;53.108;6.100;2023-08-08T03:04:39;2.90;;;1.52;;
55641;SDS011;41509;53.108;6.100;2023-08-08T03:07:05;4.80;;;1.35;;
55641;SDS011;41509;53.108;6.100;2023-08-08T03:09:33;5.22;;;1.25;;
55641;SDS011;41509;53.108;6.100;2023-08-08T03:11:58;2.75;;;1.17;;
55641;SDS011;41509;53.108;6.100;2023-08-08T03:14:24;2.55;;;1.02;;
55641;SDS011;41509;53.108;6.100;2023-08-08T03:16:50;4.95;;;2.08;;
55641;SDS011;41509;53.108;6.100;2023-08-08T03:19:15;6.75;;;1.50;;
55641;SDS011;41509;53.108;6.100;2023-08-08T03:21:41;4.28;;;1.33;;
55641;SDS011;41509;53.108;6.100;2023-08-08T03:24:09;9.40;;;1.38;;
55641;SDS011;41509;53.108;6.100;2023-08-08T03:26:35;3.22;;;1.20;;
55641;SDS011;41509;53.108;6.100;2023-08-08T03:29:01;8.57;;;1.10;;
55641;SDS011;41509;53.108;6.100;2023-08-08T03:31:26;4.45;;;1.63;;
55641;SDS011;41509;53.108;6.100;2023-08-08T03:33:52;5.07;;;1.30;;
55641;SDS011;41509;53.108;6.100;2023-08-08T03:36:20;2.70;;;1.10;;
55641;SDS011;41509;53.108;6.100;2023-08-08T03:38:46;3.88;;;1.20;;
55641;SDS011;41509;53.108;6.100;2023-08-08T03:43:38;3.17;;;1.17;;
55641;SDS011;41509;53.108;6.100;2023-08-08T03:46:07;5.53;;;1.73;;
55641;SDS011;41509;53.108;6.100;2023-08-08T03:48:33;3.72;;;1.17;;
55641;SDS011;41509;53.108;6.100;2023-08-08T03:50:58;7.07;;;1.50;;
55641;SDS011;41509;53.108;6.100;2023-08-08T03:53:24;3.47;;;1.42;;
55641;SDS011;41509;53.108;6.100;2023-08-08T03:55:50;5.55;;;2.53;;
55641;SDS011;41509;53.108;6.100;2023-08-08T03:58:15;3.45;;;1.00;;
55641;SDS011;41509;53.108;6.100;2023-08-08T04:00:42;5.35;;;1.25;;
55641;SDS011;41509;53.108;6.100;2023-08-08T04:03:12;6.70;;;1.65;;
55641;SDS011;41509;53.108;6.100;2023-08-08T04:05:45;6.55;;;1.60;;
55641;SDS011;41509;53.108;6.100;2023-08-08T04:08:12;4.25;;;1.67;;
55641;SDS011;41509;53.108;6.100;2023-08-08T04:10:38;4.50;;;1.33;;
55641;SDS011;41509;53.108;6.100;2023-08-08T04:13:12;4.00;;;1.08;;
55641;SDS011;41509;53.108;6.100;2023-08-08T04:15:40;5.38;;;1.35;;
55641;SDS011;41509;53.108;6.100;2023-08-08T04:18:09;2.72;;;1.05;;
55641;SDS011;41509;53.108;6.100;2023-08-08T04:20:38;7.95;;;0.98;;
55641;SDS011;41509;53.108;6.100;2023-08-08T04:23:03;3.10;;;0.90;;
55641;SDS011;41509;53.108;6.100;2023-08-08T04:25:29;3.92;;;1.08;;
55641;SDS011;41509;53.108;6.100;2023-08-08T04:27:55;3.60;;;1.70;;
55641;SDS011;41509;53.108;6.100;2023-08-08T04:30:21;2.90;;;0.88;;
55641;SDS011;41509;53.108;6.100;2023-08-08T04:32:46;4.18;;;1.27;;
55641;SDS011;41509;53.108;6.100;2023-08-08T04:35:12;2.78;;;1.02;;
55641;SDS011;41509;53.108;6.100;2023-08-08T04:37:38;1.48;;;0.57;;
55641;SDS011;41509;53.108;6.100;2023-08-08T04:40:04;2.13;;;1.00;;
55641;SDS011;41509;53.108;6.100;2023-08-08T04:42:30;2.47;;;0.90;;
55641;SDS011;41509;53.108;6.100;2023-08-08T04:44:55;1.93;;;0.73;;
55641;SDS011;41509;53.108;6.100;2023-08-08T04:47:21;3.28;;;0.90;;
55641;SDS011;41509;53.108;6.100;2023-08-08T04:49:47;5.90;;;1.20;;
55641;SDS011;41509;53.108;6.100;2023-08-08T04:52:12;2.28;;;0.90;;
55641;SDS011;41509;53.108;6.100;2023-08-08T04:54:38;3.10;;;1.15;;
55641;SDS011;41509;53.108;6.100;2023-08-08T04:57:04;2.88;;;1.13;;
55641;SDS011;41509;53.108;6.100;2023-08-08T04:59:30;3.25;;;0.80;;
55641;SDS011;41509;53.108;6.100;2023-08-08T05:01:56;3.72;;;1.10;;
55641;SDS011;41509;53.108;6.100;2023-08-08T05:04:24;5.55;;;1.13;;
55641;SDS011;41509;53.108;6.100;2023-08-08T05:06:52;2.70;;;0.88;;
55641;SDS011;41509;53.108;6.100;2023-08-08T05:09:18;2.33;;;1.23;;
55641;SDS011;41509;53.108;6.100;2023-08-08T05:11:48;5.20;;;1.30;;
55641;SDS011;41509;53.108;6.100;2023-08-08T05:14:14;3.83;;;1.13;;
55641;SDS011;41509;53.108;6.100;2023-08-08T05:16:39;5.80;;;1.13;;
55641;SDS011;41509;53.108;6.100;2023-08-08T05:19:05;3.53;;;1.25;;
55641;SDS011;41509;53.108;6.100;2023-08-08T05:21:31;2.17;;;0.90;;
55641;SDS011;41509;53.108;6.100;2023-08-08T05:23:59;1.33;;;0.70;;
55641;SDS011;41509;53.108;6.100;2023-08-08T05:26:25;7.05;;;1.00;;
55641;SDS011;41509;53.108;6.100;2023-08-08T05:28:52;6.25;;;1.20;;
55641;SDS011;41509;53.108;6.100;2023-08-08T05:31:17;4.47;;;0.98;;
55641;SDS011;41509;53.108;6.100;2023-08-08T05:33:43;6.47;;;0.93;;
55641;SDS011;41509;53.108;6.100;2023-08-08T05:36:13;4.43;;;1.17;;
55641;SDS011;41509;53.108;6.100;2023-08-08T05:38:39;3.42;;;0.90;;
55641;SDS011;41509;53.108;6.100;2023-08-08T05:41:06;2.75;;;0.60;;
55641;SDS011;41509;53.108;6.100;2023-08-08T05:43:31;3.20;;;1.40;;
55641;SDS011;41509;53.108;6.100;2023-08-08T05:46:00;3.97;;;0.90;;
55641;SDS011;41509;53.108;6.100;2023-08-08T05:48:26;6.00;;;0.98;;
55641;SDS011;41509;53.108;6.100;2023-08-08T05:50:51;7.30;;;1.80;;
55641;SDS011;41509;53.108;6.100;2023-08-08T05:53:17;8.80;;;1.58;;
55641;SDS011;41509;53.108;6.100;2023-08-08T05:55:43;5.82;;;1.60;;
55641;SDS011;41509;53.108;6.100;2023-08-08T05:58:09;3.38;;;1.10;;
55641;SDS011;41509;53.108;6.100;2023-08-08T06:00:35;4.43;;;1.30;;
55641;SDS011;41509;53.108;6.100;2023-08-08T06:03:01;2.80;;;1.00;;
55641;SDS011;41509;53.108;6.100;2023-08-08T06:05:27;5.60;;;0.88;;
55641;SDS011;41509;53.108;6.100;2023-08-08T06:07:53;3.97;;;0.70;;
55641;SDS011;41509;53.108;6.100;2023-08-08T06:10:20;3.10;;;0.90;;
55641;SDS011;41509;53.108;6.100;2023-08-08T06:12:46;5.28;;;0.90;;
55641;SDS011;41509;53.108;6.100;2023-08-08T06:15:12;4.25;;;0.85;;
55641;SDS011;41509;53.108;6.100;2023-08-08T06:17:38;5.85;;;0.70;;
55641;SDS011;41509;53.108;6.100;2023-08-08T06:20:04;7.20;;;1.13;;
55641;SDS011;41509;53.108;6.100;2023-08-08T06:22:31;8.98;;;1.30;;
55641;SDS011;41509;53.108;6.100;2023-08-08T06:24:57;6.72;;;2.08;;
55641;SDS011;41509;53.108;6.100;2023-08-08T06:27:23;3.72;;;1.33;;
55641;SDS011;41509;53.108;6.100;2023-08-08T06:29:49;3.53;;;1.05;;
55641;SDS011;41509;53.108;6.100;2023-08-08T06:32:14;1.77;;;0.88;;
55641;SDS011;41509;53.108;6.100;2023-08-08T06:34:40;5.40;;;0.90;;
55641;SDS011;41509;53.108;6.100;2023-08-08T06:37:05;4.65;;;0.88;;
55641;SDS011;41509;53.108;6.100;2023-08-08T06:39:31;5.22;;;0.98;;
55641;SDS011;41509;53.108;6.100;2023-08-08T06:41:57;3.70;;;1.02;;
55641;SDS011;41509;53.108;6.100;2023-08-08T06:44:23;2.97;;;0.90;;
55641;SDS011;41509;53.108;6.100;2023-08-08T06:46:48;2.80;;;0.88;;
55641;SDS011;41509;53.108;6.100;2023-08-08T06:49:16;3.58;;;0.93;;
55641;SDS011;41509;53.108;6.100;2023-08-08T06:51:42;3.55;;;0.75;;
55641;SDS011;41509;53.108;6.100;2023-08-08T06:54:08;4.40;;;0.85;;
55641;SDS011;41509;53.108;6.100;2023-08-08T06:56:33;2.20;;;0.85;;
55641;SDS011;41509;53.108;6.100;2023-08-08T06:58:59;2.42;;;0.88;;
55641;SDS011;41509;53.108;6.100;2023-08-08T07:01:25;2.75;;;0.60;;
55641;SDS011;41509;53.108;6.100;2023-08-08T07:03:50;4.75;;;0.88;;
55641;SDS011;41509;53.108;6.100;2023-08-08T07:06:17;2.70;;;0.95;;
55641;SDS011;41509;53.108;6.100;2023-08-08T07:08:43;6.13;;;1.38;;
55641;SDS011;41509;53.108;6.100;2023-08-08T07:11:09;3.35;;;0.80;;
55641;SDS011;41509;53.108;6.100;2023-08-08T07:13:35;2.13;;;0.80;;
55641;SDS011;41509;53.108;6.100;2023-08-08T07:16:01;3.03;;;0.70;;
55641;SDS011;41509;53.108;6.100;2023-08-08T07:18:27;3.90;;;0.70;;
55641;SDS011;41509;53.108;6.100;2023-08-08T07:20:53;7.28;;;1.02;;
55641;SDS011;41509;53.108;6.100;2023-08-08T07:23:18;2.65;;;0.60;;
55641;SDS011;41509;53.108;6.100;2023-08-08T07:25:47;3.10;;;0.55;;
55641;SDS011;41509;53.108;6.100;2023-08-08T07:28:13;5.45;;;1.13;;
55641;SDS011;41509;53.108;6.100;2023-08-08T07:30:41;5.45;;;0.90;;
55641;SDS011;41509;53.108;6.100;2023-08-08T07:33:07;2.33;;;0.75;;
55641;SDS011;41509;53.108;6.100;2023-08-08T07:35:36;4.75;;;0.98;;
55641;SDS011;41509;53.108;6.100;2023-08-08T07:38:01;7.47;;;1.15;;
55641;SDS011;41509;53.108;6.100;2023-08-08T07:40:27;3.38;;;0.55;;
55641;SDS011;41509;53.108;6.100;2023-08-08T07:42:53;3.92;;;0.82;;
55641;SDS011;41509;53.108;6.100;2023-08-08T07:45:19;1.52;;;0.60;;
55641;SDS011;41509;53.108;6.100;2023-08-08T07:47:46;7.32;;;0.90;;
55641;SDS011;41509;53.108;6.100;2023-08-08T07:50:11;4.20;;;0.90;;
55641;SDS011;41509;53.108;6.100;2023-08-08T07:52:37;2.38;;;0.70;;
55641;SDS011;41509;53.108;6.100;2023-08-08T07:55:04;2.80;;;0.55;;
55641;SDS011;41509;53.108;6.100;2023-08-08T07:57:30;6.78;;;0.80;;
55641;SDS011;41509;53.108;6.100;2023-08-08T07:59:58;4.90;;;0.70;;
55641;SDS011;41509;53.108;6.100;2023-08-08T08:02:25;2.92;;;0.68;;
55641;SDS011;41509;53.108;6.100;2023-08-08T08:04:51;3.08;;;0.98;;
55641;SDS011;41509;53.108;6.100;2023-08-08T08:07:17;3.17;;;1.10;;
55641;SDS011;41509;53.108;6.100;2023-08-08T08:09:43;5.78;;;0.85;;
55641;SDS011;41509;53.108;6.100;2023-08-08T08:12:09;4.55;;;0.60;;
55641;SDS011;41509;53.108;6.100;2023-08-08T08:14:34;6.68;;;0.77;;
55641;SDS011;41509;53.108;6.100;2023-08-08T08:17:00;9.45;;;1.23;;
55641;SDS011;41509;53.108;6.100;2023-08-08T08:19:26;6.68;;;0.82;;
55641;SDS011;41509;53.108;6.100;2023-08-08T08:21:51;5.53;;;1.13;;
55641;SDS011;41509;53.108;6.100;2023-08-08T08:24:17;4.85;;;0.80;;
55641;SDS011;41509;53.108;6.100;2023-08-08T08:26:43;6.35;;;0.98;;
55641;SDS011;41509;53.108;6.100;2023-08-08T08:29:08;9.52;;;0.82;;
55641;SDS011;41509;53.108;6.100;2023-08-08T08:31:34;3.28;;;0.80;;
55641;SDS011;41509;53.108;6.100;2023-08-08T08:34:02;3.92;;;0.65;;
55641;SDS011;41509;53.108;6.100;2023-08-08T08:36:28;2.10;;;0.70;;
55641;SDS011;41509;53.108;6.100;2023-08-08T08:38:54;3.53;;;0.73;;
55641;SDS011;41509;53.108;6.100;2023-08-08T08:41:20;2.45;;;0.73;;
55641;SDS011;41509;53.108;6.100;2023-08-08T08:43:51;3.70;;;0.80;;
55641;SDS011;41509;53.108;6.100;2023-08-08T08:46:20;8.82;;;0.73;;
55641;SDS011;41509;53.108;6.100;2023-08-08T08:48:50;2.97;;;0.50;;
55641;SDS011;41509;53.108;6.100;2023-08-08T08:51:18;1.73;;;0.77;;
55641;SDS011;41509;53.108;6.100;2023-08-08T08:53:43;1.95;;;0.45;;
55641;SDS011;41509;53.108;6.100;2023-08-08T08:56:12;3.63;;;0.80;;
55641;SDS011;41509;53.108;6.100;2023-08-08T08:58:39;4.70;;;1.15;;
55641;SDS011;41509;53.108;6.100;2023-08-08T09:01:06;2.05;;;0.57;;
55641;SDS011;41509;53.108;6.100;2023-08-08T09:03:33;1.73;;;0.52;;
55641;SDS011;41509;53.108;6.100;2023-08-08T09:06:00;4.65;;;0.70;;
55641;SDS011;41509;53.108;6.100;2023-08-08T09:08:26;3.33;;;0.57;;
55641;SDS011;41509;53.108;6.100;2023-08-08T09:10:52;4.18;;;0.70;;
55641;SDS011;41509;53.108;6.100;2023-08-08T09:13:18;4.65;;;0.57;;
55641;SDS011;41509;53.108;6.100;2023-08-08T09:15:47;4.32;;;0.70;;
55641;SDS011;41509;53.108;6.100;2023-08-08T09:18:14;6.15;;;0.70;;
55641;SDS011;41509;53.108;6.100;2023-08-08T09:20:40;4.95;;;1.30;;
55641;SDS011;41509;53.108;6.100;2023-08-08T09:23:05;4.13;;;0.80;;
55641;SDS011;41509;53.108;6.100;2023-08-08T09:25:31;2.58;;;0.50;;
55641;SDS011;41509;53.108;6.100;2023-08-08T09:27:57;3.15;;;0.80;;
55641;SDS011;41509;53.108;6.100;2023-08-08T09:30:23;3.47;;;0.68;;
55641;SDS011;41509;53.108;6.100;2023-08-08T09:32:48;4.60;;;0.88;;
55641;SDS011;41509;53.108;6.100;2023-08-08T09:35:14;4.80;;;0.85;;
55641;SDS011;41509;53.108;6.100;2023-08-08T09:37:40;3.50;;;0.82;;
55641;SDS011;41509;53.108;6.100;2023-08-08T09:40:07;4.45;;;0.90;;
55641;SDS011;41509;53.108;6.100;2023-08-08T09:42:33;2.72;;;0.60;;
55641;SDS011;41509;53.108;6.100;2023-08-08T09:45:00;5.75;;;0.70;;
55641;SDS011;41509;53.108;6.100;2023-08-08T09:47:26;6.13;;;1.00;;
55641;SDS011;41509;53.108;6.100;2023-08-08T09:50:02;5.47;;;1.10;;
55641;SDS011;41509;53.108;6.100;2023-08-08T09:52:33;3.58;;;0.93;;
55641;SDS011;41509;53.108;6.100;2023-08-08T09:55:00;2.35;;;0.70;;
55641;SDS011;41509;53.108;6.100;2023-08-08T09:57:26;5.00;;;0.80;;
55641;SDS011;41509;53.108;6.100;2023-08-08T09:59:53;7.65;;;0.88;;
55641;SDS011;41509;53.108;6.100;2023-08-08T10:02:19;4.10;;;0.98;;
55641;SDS011;41509;53.108;6.100;2023-08-08T10:04:45;3.75;;;1.02;;
55641;SDS011;41509;53.108;6.100;2023-08-08T10:07:11;9.27;;;0.88;;
55641;SDS011;41509;53.108;6.100;2023-08-08T10:09:37;3.40;;;0.70;;
55641;SDS011;41509;53.108;6.100;2023-08-08T10:12:04;3.72;;;0.90;;
55641;SDS011;41509;53.108;6.100;2023-08-08T10:14:32;3.17;;;0.95;;
55641;SDS011;41509;53.108;6.100;2023-08-08T10:17:02;4.20;;;0.90;;
55641;SDS011;41509;53.108;6.100;2023-08-08T10:19:28;1.67;;;0.60;;
55641;SDS011;41509;53.108;6.100;2023-08-08T10:24:24;3.88;;;0.80;;
55641;SDS011;41509;53.108;6.100;2023-08-08T10:26:57;3.75;;;0.77;;
55641;SDS011;41509;53.108;6.100;2023-08-08T10:29:25;4.85;;;0.68;;
55641;SDS011;41509;53.108;6.100;2023-08-08T10:31:52;3.03;;;1.05;;
55641;SDS011;41509;53.108;6.100;2023-08-08T10:34:44;5.60;;;0.80;;
55641;SDS011;41509;53.108;6.100;2023-08-08T10:37:12;4.47;;;0.85;;
55641;SDS011;41509;53.108;6.100;2023-08-08T10:39:53;1.95;;;0.50;;
55641;SDS011;41509;53.108;6.100;2023-08-08T10:42:20;3.13;;;0.45;;
55641;SDS011;41509;53.108;6.100;2023-08-08T10:44:59;4.10;;;0.90;;
55641;SDS011;41509;53.108;6.100;2023-08-08T10:47:26;4.88;;;0.82;;
55641;SDS011;41509;53.108;6.100;2023-08-08T10:55:20;4.82;;;0.85;;
55641;SDS011;41509;53.108;6.100;2023-08-08T10:57:54;4.72;;;0.88;;
55641;SDS011;41509;53.108;6.100;2023-08-08T11:00:23;4.32;;;0.75;;
55641;SDS011;41509;53.108;6.100;2023-08-08T11:02:51;2.55;;;0.85;;
55641;SDS011;41509;53.108;6.100;2023-08-08T11:05:18;2.88;;;0.82;;
55641;SDS011;41509;53.108;6.100;2023-08-08T11:07:45;6.10;;;0.68;;
55641;SDS011;41509;53.108;6.100;2023-08-08T11:10:10;1.50;;;0.55;;
55641;SDS011;41509;53.108;6.100;2023-08-08T11:12:36;2.15;;;0.50;;
55641;SDS011;41509;53.108;6.100;2023-08-08T11:15:02;4.30;;;0.68;;
55641;SDS011;41509;53.108;6.100;2023-08-08T11:17:28;7.13;;;0.90;;
55641;SDS011;41509;53.108;6.100;2023-08-08T11:19:55;2.42;;;0.55;;
55641;SDS011;41509;53.108;6.100;2023-08-08T11:22:21;2.95;;;0.50;;
55641;SDS011;41509;53.108;6.100;2023-08-08T11:24:48;3.22;;;0.63;;
55641;SDS011;41509;53.108;6.100;2023-08-08T11:27:15;5.63;;;0.90;;
55641;SDS011;41509;53.108;6.100;2023-08-08T11:32:14;1.63;;;0.63;;
55641;SDS011;41509;53.108;6.100;2023-08-08T11:34:40;4.47;;;0.95;;
55641;SDS011;41509;53.108;6.100;2023-08-08T11:37:06;2.80;;;1.08;;
55641;SDS011;41509;53.108;6.100;2023-08-08T11:39:33;1.25;;;0.65;;
55641;SDS011;41509;53.108;6.100;2023-08-08T11:41:59;3.75;;;0.70;;
55641;SDS011;41509;53.108;6.100;2023-08-08T11:44:26;4.07;;;0.60;;
55641;SDS011;41509;53.108;6.100;2023-08-08T11:46:52;3.80;;;0.80;;
55641;SDS011;41509;53.108;6.100;2023-08-08T11:49:17;6.13;;;1.05;;
55641;SDS011;41509;53.108;6.100;2023-08-08T11:51:44;1.52;;;0.60;;
55641;SDS011;41509;53.108;6.100;2023-08-08T11:54:10;3.20;;;0.65;;
55641;SDS011;41509;53.108;6.100;2023-08-08T11:56:36;3.67;;;0.85;;
55641;SDS011;41509;53.108;6.100;2023-08-08T11:59:02;5.32;;;0.57;;
55641;SDS011;41509;53.108;6.100;2023-08-08T12:01:30;2.90;;;0.77;;
55641;SDS011;41509;53.108;6.100;2023-08-08T12:03:58;6.55;;;0.80;;
55641;SDS011;41509;53.108;6.100;2023-08-08T12:06:29;4.32;;;0.93;;
55641;SDS011;41509;53.108;6.100;2023-08-08T12:08:55;2.97;;;0.70;;
55641;SDS011;41509;53.108;6.100;2023-08-08T12:11:21;5.10;;;1.23;;
55641;SDS011;41509;53.108;6.100;2023-08-08T12:13:47;5.25;;;0.88;;
55641;SDS011;41509;53.108;6.100;2023-08-08T12:16:13;5.53;;;0.73;;
55641;SDS011;41509;53.108;6.100;2023-08-08T12:18:40;5.55;;;0.70;;
55641;SDS011;41509;53.108;6.100;2023-08-08T12:21:06;3.80;;;0.70;;
55641;SDS011;41509;53.108;6.100;2023-08-08T12:23:33;5.78;;;1.05;;
55641;SDS011;41509;53.108;6.100;2023-08-08T12:26:00;2.88;;;0.50;;
55641;SDS011;41509;53.108;6.100;2023-08-08T12:28:28;3.45;;;0.50;;
55641;SDS011;41509;53.108;6.100;2023-08-08T12:30:54;4.85;;;1.33;;
55641;SDS011;41509;53.108;6.100;2023-08-08T12:33:20;6.28;;;0.70;;
55641;SDS011;41509;53.108;6.100;2023-08-08T12:35:46;3.28;;;0.63;;
55641;SDS011;41509;53.108;6.100;2023-08-08T12:38:12;2.90;;;0.75;;
55641;SDS011;41509;53.108;6.100;2023-08-08T12:40:39;4.32;;;0.82;;
55641;SDS011;41509;53.108;6.100;2023-08-08T12:43:05;4.53;;;0.50;;
55641;SDS011;41509;53.108;6.100;2023-08-08T12:45:30;1.27;;;0.55;;
55641;SDS011;41509;53.108;6.100;2023-08-08T12:47:56;5.05;;;0.90;;
55641;SDS011;41509;53.108;6.100;2023-08-08T12:50:22;1.65;;;0.57;;
55641;SDS011;41509;53.108;6.100;2023-08-08T12:55:14;2.85;;;0.60;;
55641;SDS011;41509;53.108;6.100;2023-08-08T12:57:42;2.50;;;0.60;;
55641;SDS011;41509;53.108;6.100;2023-08-08T13:00:09;4.72;;;1.08;;
55641;SDS011;41509;53.108;6.100;2023-08-08T13:02:37;2.53;;;0.60;;
55641;SDS011;41509;53.108;6.100;2023-08-08T13:05:03;2.40;;;0.77;;
55641;SDS011;41509;53.108;6.100;2023-08-08T13:07:29;3.60;;;0.70;;
55641;SDS011;41509;53.108;6.100;2023-08-08T13:09:55;4.07;;;0.85;;
55641;SDS011;41509;53.108;6.100;2023-08-08T13:12:20;3.92;;;0.77;;
55641;SDS011;41509;53.108;6.100;2023-08-08T13:14:46;2.17;;;0.70;;
55641;SDS011;41509;53.108;6.100;2023-08-08T13:17:12;4.93;;;0.68;;
55641;SDS011;41509;53.108;6.100;2023-08-08T13:19:38;4.15;;;0.95;;
55641;SDS011;41509;53.108;6.100;2023-08-08T13:22:05;3.42;;;1.08;;
55641;SDS011;41509;53.108;6.100;2023-08-08T13:24:30;6.05;;;1.13;;
55641;SDS011;41509;53.108;6.100;2023-08-08T13:26:56;5.22;;;1.10;;
55641;SDS011;41509;53.108;6.100;2023-08-08T13:29:22;6.65;;;0.70;;
55641;SDS011;41509;53.108;6.100;2023-08-08T13:31:48;9.15;;;0.90;;
55641;SDS011;41509;53.108;6.100;2023-08-08T13:34:13;3.65;;;0.90;;
55641;SDS011;41509;53.108;6.100;2023-08-08T13:36:39;3.60;;;0.95;;
55641;SDS011;41509;53.108;6.100;2023-08-08T13:41:34;7.68;;;0.73;;
55641;SDS011;41509;53.108;6.100;2023-08-08T13:44:00;5.80;;;1.10;;
55641;SDS011;41509;53.108;6.100;2023-08-08T13:46:25;6.78;;;0.70;;
55641;SDS011;41509;53.108;6.100;2023-08-08T13:48:51;3.53;;;0.90;;
55641;SDS011;41509;53.108;6.100;2023-08-08T13:51:17;4.70;;;1.45;;
55641;SDS011;41509;53.108;6.100;2023-08-08T13:53:43;8.70;;;0.70;;
55641;SDS011;41509;53.108;6.100;2023-08-08T13:56:10;2.67;;;1.02;;
55641;SDS011;41509;53.108;6.100;2023-08-08T13:58:36;4.68;;;1.02;;
55641;SDS011;41509;53.108;6.100;2023-08-08T14:01:02;10.57;;;0.68;;
55641;SDS011;41509;53.108;6.100;2023-08-08T14:03:27;2.20;;;0.70;;
55641;SDS011;41509;53.108;6.100;2023-08-08T14:05:53;4.50;;;0.88;;
55641;SDS011;41509;53.108;6.100;2023-08-08T14:08:19;5.05;;;1.30;;
55641;SDS011;41509;53.108;6.100;2023-08-08T14:10:45;2.60;;;0.60;;
55641;SDS011;41509;53.108;6.100;2023-08-08T14:15:37;1.13;;;0.35;;
55641;SDS011;41509;53.108;6.100;2023-08-08T14:18:03;6.70;;;1.05;;
55641;SDS011;41509;53.108;6.100;2023-08-08T14:20:30;4.88;;;0.70;;
55641;SDS011;41509;53.108;6.100;2023-08-08T14:22:55;2.63;;;0.77;;
55641;SDS011;41509;53.108;6.100;2023-08-08T14:25:21;4.07;;;1.13;;
55641;SDS011;41509;53.108;6.100;2023-08-08T14:27:47;1.95;;;0.47;;
55641;SDS011;41509;53.108;6.100;2023-08-08T14:30:13;4.28;;;0.80;;
55641;SDS011;41509;53.108;6.100;2023-08-08T14:32:39;5.95;;;0.70;;
55641;SDS011;41509;53.108;6.100;2023-08-08T14:35:04;1.23;;;0.47;;
55641;SDS011;41509;53.108;6.100;2023-08-08T14:37:31;3.75;;;0.65;;
55641;SDS011;41509;53.108;6.100;2023-08-08T14:39:57;2.95;;;0.70;;
55641;SDS011;41509;53.108;6.100;2023-08-08T14:44:49;2.30;;;0.63;;
55641;SDS011;41509;53.108;6.100;2023-08-08T14:47:17;1.13;;;0.25;;
55641;SDS011;41509;53.108;6.100;2023-08-08T14:49:43;7.50;;;1.30;;
55641;SDS011;41509;53.108;6.100;2023-08-08T14:52:09;5.05;;;0.70;;
55641;SDS011;41509;53.108;6.100;2023-08-08T14:54:34;3.60;;;0.70;;
55641;SDS011;41509;53.108;6.100;2023-08-08T14:57:00;2.15;;;0.70;;
55641;SDS011;41509;53.108;6.100;2023-08-08T14:59:27;2.40;;;0.68;;
55641;SDS011;41509;53.108;6.100;2023-08-08T15:01:53;1.85;;;0.50;;
55641;SDS011;41509;53.108;6.100;2023-08-08T15:04:19;6.00;;;0.63;;
55641;SDS011;41509;53.108;6.100;2023-08-08T15:06:45;7.28;;;0.60;;
55641;SDS011;41509;53.108;6.100;2023-08-08T15:09:11;4.25;;;0.60;;
55641;SDS011;41509;53.108;6.100;2023-08-08T15:11:36;4.57;;;0.68;;
55641;SDS011;41509;53.108;6.100;2023-08-08T15:14:02;4.50;;;0.90;;